Kenington, Connecticut
Current Conditions -  °F | °C
As of 7:53 PM on Monday 22 Dec 2014 (Local Time) from KMMK Reporting Station
Overcast Overcast  
Wind Chill: 42°   Ceiling: 1600
Heat Index: 42°   Visibility: 10mi
Dew Point: 36°   Wind: 3mph
Humidity: 79%   Direction: 20°NNE
Pressure: 30.27"   Gusts: NA
Location:  41.611°N, 72.7774°W
Report Text: KMMK 230053Z AUTO 02003KT 10SM OVC016 06/02 A3027 RMK AO2 SLP252 T00560022 TSNO
Loading
Personal Weather Stations






























Interactive Weather Map New forecast layout! Learn more

10-Day Weather Forecast

Advertisements
Track Severe Weather on mobile